Time;durP1;ratioP1;P1;durP2;ratioP2;P2;SDS_P1;SDS_P2;PMS_P1;PMS_P2;Temp;Humidity;BMP_temperature;BMP_pressure;BME280_temperature;BME280_humidity;BME280_pressure;Samples;Min_cycle;Max_cycle;Signal;HPM_P1;HPM_P2
2022/09/21 00:00:45;;;;;;;8.63;4.55;;;11.00;99.90;;;;;;5009438;28;20405;-53
2022/09/21 00:03:31;;;;;;;6.53;4.80;;;11.00;99.90;;;;;;5010413;28;20040;-58
2022/09/21 00:06:19;;;;;;;7.15;4.35;;;11.00;99.90;;;;;;4993191;28;20034;-57
2022/09/21 00:09:07;;;;;;;7.88;4.50;;;10.90;99.90;;;;;;4992760;28;20034;-53
2022/09/21 00:11:53;;;;;;;13.32;5.43;;;10.90;99.90;;;;;;4992033;28;20034;-53
2022/09/21 00:14:39;;;;;;;6.38;4.63;;;10.90;99.90;;;;;;4993363;28;20022;-53
2022/09/21 00:17:24;;;;;;;7.93;4.85;;;10.80;99.90;;;;;;5000728;28;20057;-53
2022/09/21 00:20:11;;;;;;;8.65;4.95;;;10.80;99.90;;;;;;4998165;28;20034;-54
2022/09/21 00:22:56;;;;;;;5.90;4.53;;;10.80;99.90;;;;;;4992349;28;20480;-57
2022/09/21 00:25:42;;;;;;;7.25;4.60;;;10.80;99.90;;;;;;4992802;28;20457;-55
2022/09/21 00:28:28;;;;;;;7.55;4.47;;;10.80;99.90;;;;;;5000217;28;20038;-60
2022/09/21 00:31:17;;;;;;;7.07;4.55;;;10.70;99.90;;;;;;5009048;28;20041;-58
2022/09/21 00:34:06;;;;;;;10.77;4.70;;;10.70;99.90;;;;;;5012681;28;20101;-56
2022/09/21 00:36:52;;;;;;;6.00;4.40;;;10.60;99.90;;;;;;5000357;28;20113;-52
2022/09/21 00:39:38;;;;;;;7.35;4.93;;;10.60;99.90;;;;;;5005864;28;20030;-55
2022/09/21 00:42:29;;;;;;;9.35;5.25;;;10.60;99.90;;;;;;4991762;28;20026;-55
2022/09/21 00:45:24;;;;;;;6.45;4.70;;;10.60;99.90;;;;;;4993817;28;20505;-57
2022/09/21 00:48:10;;;;;;;6.32;4.68;;;10.50;99.90;;;;;;4992467;28;20045;-59
2022/09/21 00:51:01;;;;;;;7.45;5.20;;;10.50;99.90;;;;;;4992365;28;20065;-56
2022/09/21 00:53:52;;;;;;;7.30;4.95;;;10.40;99.90;;;;;;4992547;28;20026;-56
2022/09/21 00:56:38;;;;;;;6.15;5.07;;;10.50;99.90;;;;;;4978795;28;20034;-55
2022/09/21 00:59:24;;;;;;;8.35;5.30;;;10.50;99.90;;;;;;5008708;28;20030;-57
2022/09/21 01:02:11;;;;;;;5.40;4.53;;;10.60;99.90;;;;;;5007846;28;20077;-57
2022/09/21 01:04:57;;;;;;;8.15;5.07;;;10.50;99.90;;;;;;4993224;28;20034;-53
2022/09/21 01:07:46;;;;;;;8.10;5.78;;;10.60;99.90;;;;;;4994355;28;20069;-53
2022/09/21 01:10:56;;;;;;;7.97;4.65;;;10.50;99.90;;;;;;5003127;28;20037;-55
2022/09/21 01:14:00;;;;;;;6.55;4.97;;;10.50;99.90;;;;;;4992576;28;20023;-57
2022/09/21 01:17:03;;;;;;;10.10;5.28;;;10.40;99.90;;;;;;4992417;28;20520;-57
2022/09/21 01:20:16;;;;;;;10.00;5.75;;;10.40;99.90;;;;;;5008740;28;20028;-52
2022/09/21 01:23:37;;;;;;;13.05;5.57;;;10.40;99.90;;;;;;4991043;28;20036;-54
2022/09/21 01:26:56;;;;;;;10.77;6.43;;;10.40;99.90;;;;;;4996829;28;20057;-50
2022/09/21 01:29:43;;;;;;;8.55;6.47;;;10.30;99.90;;;;;;5011601;28;20025;-51
2022/09/21 01:32:41;;;;;;;9.50;6.13;;;10.30;99.90;;;;;;5001019;28;20034;-56
2022/09/21 01:35:33;;;;;;;8.07;5.50;;;10.20;99.90;;;;;;5015739;28;20030;-57
2022/09/21 01:38:35;;;;;;;8.30;5.32;;;10.20;99.90;;;;;;4995316;28;20434;-55
2022/09/21 01:41:25;;;;;;;7.32;5.28;;;10.20;99.90;;;;;;5012290;28;20060;-54
2022/09/21 01:44:16;;;;;;;8.02;5.53;;;10.30;99.90;;;;;;5005826;28;20081;-52
2022/09/21 01:47:07;;;;;;;6.70;5.30;;;10.30;99.90;;;;;;4993862;28;20109;-55
2022/09/21 01:49:55;;;;;;;7.30;5.78;;;10.20;99.90;;;;;;5009579;28;20076;-57
2022/09/21 01:52:45;;;;;;;11.45;5.88;;;10.20;99.90;;;;;;5006075;28;20552;-56
2022/09/21 01:55:49;;;;;;;7.40;5.20;;;10.20;99.90;;;;;;4991827;28;20110;-55
2022/09/21 01:59:07;;;;;;;8.68;5.97;;;10.20;99.90;;;;;;5007216;28;20022;-54
2022/09/21 02:01:57;;;;;;;10.82;5.85;;;10.20;99.90;;;;;;4969700;28;20466;-55
2022/09/21 02:04:43;;;;;;;8.68;5.68;;;10.10;99.90;;;;;;5010822;28;20026;-54
2022/09/21 02:07:31;;;;;;;9.27;5.65;;;10.10;99.90;;;;;;5009013;28;20041;-58
2022/09/21 02:10:30;;;;;;;8.20;5.55;;;10.00;99.90;;;;;;4995710;28;20116;-56
2022/09/21 02:13:19;;;;;;;7.50;5.88;;;10.00;99.90;;;;;;4991183;28;20495;-54
2022/09/21 02:16:29;;;;;;;7.93;6.35;;;10.00;99.90;;;;;;4991209;28;20544;-57
2022/09/21 02:19:21;;;;;;;6.07;5.47;;;9.90;99.90;;;;;;5010651;28;20069;-59
2022/09/21 02:22:21;;;;;;;7.60;5.68;;;9.90;99.90;;;;;;5009719;28;20022;-57
2022/09/21 02:25:14;;;;;;;7.07;5.65;;;9.90;99.90;;;;;;5013989;28;20033;-55
2022/09/21 02:28:32;;;;;;;10.85;5.85;;;9.80;99.90;;;;;;4999008;28;20510;-56
2022/09/21 02:31:45;;;;;;;8.13;5.80;;;9.80;99.90;;;;;;4977979;28;20133;-59
2022/09/21 02:34:46;;;;;;;7.30;5.35;;;9.70;99.90;;;;;;5002532;28;20034;-56
2022/09/21 02:37:41;;;;;;;7.93;5.43;;;9.70;99.90;;;;;;5007990;28;20061;-56
2022/09/21 02:40:41;;;;;;;7.75;5.13;;;9.70;99.90;;;;;;4994507;28;20031;-56
2022/09/21 02:43:38;;;;;;;10.00;5.68;;;9.80;99.90;;;;;;4994838;28;20036;-57
2022/09/21 02:46:36;;;;;;;8.15;5.50;;;9.80;99.90;;;;;;5003389;28;20059;-56
2022/09/21 02:49:34;;;;;;;8.90;6.07;;;9.70;99.90;;;;;;5006699;28;20033;-55
2022/09/21 02:52:21;;;;;;;7.53;5.75;;;9.70;99.90;;;;;;5012902;28;20169;-59
2022/09/21 02:55:09;;;;;;;7.15;5.47;;;9.70;99.90;;;;;;5013845;28;20077;-56
2022/09/21 02:57:55;;;;;;;7.60;5.55;;;9.70;99.90;;;;;;4996131;28;20068;-57
2022/09/21 03:00:41;;;;;;;7.43;6.22;;;9.70;99.90;;;;;;4993761;28;20038;-51
2022/09/21 03:03:27;;;;;;;7.30;5.43;;;9.70;99.90;;;;;;4993822;28;20031;-54
2022/09/21 03:06:13;;;;;;;8.13;5.47;;;9.60;99.90;;;;;;5005242;28;20172;-56
2022/09/21 03:08:59;;;;;;;6.60;5.47;;;9.70;99.90;;;;;;5013326;28;20040;-57
2022/09/21 03:11:45;;;;;;;7.50;5.75;;;9.60;99.90;;;;;;4997615;28;20129;-54
2022/09/21 03:14:32;;;;;;;9.48;6.43;;;9.60;99.90;;;;;;5013211;28;20030;-55
2022/09/21 03:17:18;;;;;;;7.97;5.70;;;9.60;99.90;;;;;;4999071;28;20080;-51
2022/09/21 03:20:05;;;;;;;9.85;6.55;;;9.60;99.90;;;;;;5006307;28;20687;-57
2022/09/21 03:22:50;;;;;;;8.35;6.57;;;9.50;99.90;;;;;;4994057;28;20034;-58
2022/09/21 03:25:37;;;;;;;6.60;5.75;;;9.50;99.90;;;;;;5002678;28;20114;-53
2022/09/21 03:28:23;;;;;;;7.93;5.65;;;9.40;99.90;;;;;;5005714;28;20170;-57
2022/09/21 03:31:09;;;;;;;8.80;6.40;;;9.50;99.90;;;;;;4995481;28;20092;-59
2022/09/21 08:20:18;;;;;;;14.50;5.97;;;12.70;99.90;;;;;;4992567;28;20026;-52
2022/09/21 08:23:04;;;;;;;8.40;5.80;;;12.50;99.90;;;;;;4965328;28;20117;-57
2022/09/21 08:25:50;;;;;;;11.48;5.32;;;12.60;99.90;;;;;;4965431;28;20038;-57
2022/09/21 08:28:37;;;;;;;11.77;5.57;;;12.60;99.90;;;;;;4993597;28;20041;-57
2022/09/21 08:31:24;;;;;;;10.20;4.93;;;12.70;99.90;;;;;;4992630;28;20117;-52
2022/09/21 08:34:10;;;;;;;9.68;5.93;;;13.10;99.90;;;;;;4993466;28;20089;-51
2022/09/21 08:36:56;;;;;;;16.02;5.75;;;13.10;99.90;;;;;;4993407;28;20101;-54
2022/09/21 08:39:42;;;;;;;12.30;5.75;;;13.20;99.90;;;;;;4979030;28;20078;-51
2022/09/21 08:42:58;;;;;;;10.13;5.45;;;13.20;99.90;;;;;;4978447;28;20180;-53
2022/09/21 08:45:45;;;;;;;10.75;5.13;;;13.40;99.90;;;;;;4993799;28;20053;-51
2022/09/21 08:48:39;;;;;;;8.73;5.60;;;13.40;99.90;;;;;;4979185;28;20032;-52
2022/09/21 08:51:29;;;;;;;11.10;5.82;;;13.50;99.90;;;;;;4978422;28;20101;-50
2022/09/21 08:54:27;;;;;;;7.43;5.53;;;13.50;99.90;;;;;;4992500;28;20048;-51
2022/09/21 08:57:15;;;;;;;12.18;6.05;;;13.40;99.90;;;;;;4992086;28;20036;-56
2022/09/21 09:00:06;;;;;;;11.30;5.57;;;13.50;99.90;;;;;;4978985;28;20036;-49
2022/09/21 09:03:17;;;;;;;11.55;4.82;;;13.70;99.90;;;;;;4992581;28;20026;-56
2022/09/21 09:06:08;;;;;;;10.07;4.97;;;13.90;99.90;;;;;;4993064;28;20023;-52
2022/09/21 09:09:12;;;;;;;11.27;5.30;;;14.00;99.90;;;;;;4992096;28;20026;-55
2022/09/21 09:12:29;;;;;;;11.55;5.13;;;14.10;99.90;;;;;;4995841;28;20058;-56
2022/09/21 09:15:41;;;;;;;10.77;5.07;;;14.30;99.90;;;;;;4991568;28;20046;-54
2022/09/21 09:18:37;;;;;;;10.98;5.88;;;14.20;99.90;;;;;;4989566;28;20066;-54
2022/09/21 09:21:33;;;;;;;13.32;5.18;;;14.20;99.90;;;;;;4997709;28;20084;-51
2022/09/21 09:24:36;;;;;;;7.32;4.78;;;14.30;99.90;;;;;;4971458;28;20026;-54
2022/09/21 09:27:30;;;;;;;12.48;5.45;;;14.40;99.90;;;;;;4994607;28;20042;-50
2022/09/21 09:30:22;;;;;;;12.75;4.95;;;14.50;99.90;;;;;;4992418;28;20113;-58
2022/09/21 09:33:23;;;;;;;10.30;4.35;;;14.70;99.90;;;;;;5006886;28;20023;-53
2022/09/21 09:36:10;;;;;;;9.48;3.90;;;14.70;99.90;;;;;;5002956;28;20475;-57
2022/09/21 09:39:00;;;;;;;7.07;3.63;;;14.80;99.40;;;;;;5008896;28;20042;-53
2022/09/21 09:42:04;;;;;;;6.72;3.70;;;14.90;98.70;;;;;;4995185;28;20062;-55
2022/09/21 09:45:03;;;;;;;6.82;3.40;;;14.90;98.20;;;;;;4982379;28;20086;-54
2022/09/21 09:48:03;;;;;;;6.22;3.50;;;14.80;98.60;;;;;;4990932;28;20027;-53
2022/09/21 09:50:49;;;;;;;7.72;4.00;;;14.90;98.60;;;;;;4987288;28;20030;-55
2022/09/21 09:53:35;;;;;;;8.98;3.50;;;14.90;98.80;;;;;;4986673;28;20487;-52
2022/09/21 09:56:21;;;;;;;5.78;3.47;;;15.10;97.90;;;;;;4997544;28;20387;-55
2022/09/21 09:59:18;;;;;;;13.18;4.18;;;15.10;97.60;;;;;;4977355;28;20462;-55
2022/09/21 10:02:17;;;;;;;6.43;3.63;;;15.30;97.40;;;;;;5002820;28;20056;-56
2022/09/21 10:05:07;;;;;;;4.68;2.97;;;15.40;97.10;;;;;;4988156;28;20026;-55
2022/09/21 10:07:53;;;;;;;7.10;3.10;;;15.60;95.70;;;;;;4991755;28;20082;-50
2022/09/21 10:10:40;;;;;;;4.95;2.90;;;15.60;96.10;;;;;;4980981;28;20026;-50
2022/09/21 10:13:31;;;;;;;5.25;2.92;;;15.40;95.90;;;;;;4991323;28;20019;-54
2022/09/21 10:16:17;;;;;;;10.25;3.10;;;15.30;96.20;;;;;;4977979;28;20101;-55
2022/09/21 10:19:04;;;;;;;6.35;2.60;;;15.40;96.10;;;;;;4989924;28;20022;-54
2022/09/21 10:22:02;;;;;;;6.20;3.33;;;15.70;95.30;;;;;;4990714;28;20040;-52
2022/09/21 10:24:53;;;;;;;5.32;2.60;;;15.40;95.60;;;;;;4990900;28;20089;-52
2022/09/21 10:27:44;;;;;;;7.57;2.80;;;15.40;95.60;;;;;;4991437;28;20026;-54
2022/09/21 10:30:33;;;;;;;8.25;2.58;;;15.50;94.80;;;;;;4990709;28;20073;-54
2022/09/21 10:33:21;;;;;;;3.47;2.38;;;15.60;94.50;;;;;;4962683;28;20054;-52
2022/09/21 10:36:27;;;;;;;3.95;2.35;;;15.70;94.30;;;;;;4990922;28;20453;-50
2022/09/21 10:39:20;;;;;;;7.82;2.60;;;16.00;94.10;;;;;;4990817;28;20053;-50
2022/09/21 10:42:11;;;;;;;4.47;2.60;;;16.20;93.50;;;;;;4991363;28;20070;-55
2022/09/21 10:45:13;;;;;;;4.63;2.00;;;16.20;92.70;;;;;;4977886;28;20402;-54
2022/09/21 10:48:15;;;;;;;5.80;2.63;;;16.10;92.40;;;;;;4994714;28;20030;-55
2022/09/21 10:51:02;;;;;;;4.78;2.55;;;15.90;93.10;;;;;;4979477;28;20117;-53
2022/09/21 10:53:48;;;;;;;8.98;3.30;;;15.70;93.60;;;;;;4994816;28;20033;-55
2022/09/21 10:56:34;;;;;;;5.18;2.40;;;15.70;93.60;;;;;;4993619;28;20030;-55
2022/09/21 10:59:25;;;;;;;5.53;2.42;;;15.70;93.60;;;;;;4982350;28;20531;-56
2022/09/21 11:02:30;;;;;;;5.38;2.50;;;15.80;93.40;;;;;;5001932;28;20045;-55
2022/09/21 11:05:33;;;;;;;7.93;3.10;;;16.00;93.10;;;;;;4994303;28;20393;-54
2022/09/21 11:08:27;;;;;;;5.13;3.22;;;15.90;93.30;;;;;;5009219;28;20022;-53
2022/09/21 11:11:38;;;;;;;5.55;2.70;;;15.70;93.80;;;;;;4993349;28;20022;-55
2022/09/21 11:14:52;;;;;;;4.60;2.53;;;15.70;93.90;;;;;;4993755;28;20015;-55
2022/09/21 11:17:44;;;;;;;3.72;2.22;;;15.80;93.30;;;;;;4983627;28;20010;-50
2022/09/21 11:20:51;;;;;;;3.10;2.17;;;15.90;92.10;;;;;;4992972;28;20057;-49
2022/09/21 11:24:15;;;;;;;5.50;2.85;;;16.00;92.10;;;;;;4987310;28;20038;-50
2022/09/21 11:27:19;;;;;;;5.15;2.83;;;16.40;92.40;;;;;;4999396;28;20026;-54
2022/09/21 11:30:08;;;;;;;6.43;3.00;;;16.80;92.50;;;;;;4989151;28;20076;-54
2022/09/21 11:33:32;;;;;;;6.43;2.10;;;17.20;91.70;;;;;;4997111;28;20033;-52
2022/09/21 11:36:41;;;;;;;5.22;2.33;;;16.80;90.30;;;;;;4934131;29;20546;-57
2022/09/21 11:39:45;;;;;;;6.80;2.47;;;16.60;90.90;;;;;;4934463;28;20020;-57
2022/09/21 11:42:50;;;;;;;5.15;2.47;;;16.40;91.70;;;;;;4993518;28;20025;-50
2022/09/21 11:46:18;;;;;;;4.15;2.40;;;16.60;91.40;;;;;;4992804;28;20045;-51
2022/09/21 11:49:26;;;;;;;3.35;2.08;;;16.90;90.40;;;;;;4940702;28;20034;-55
2022/09/21 11:52:30;;;;;;;5.55;2.47;;;17.20;89.90;;;;;;4978889;28;20085;-53
2022/09/21 11:55:43;;;;;;;4.50;2.70;;;17.50;89.60;;;;;;4978797;28;20026;-50
2022/09/21 11:59:02;;;;;;;5.25;2.63;;;17.50;89.20;;;;;;4993417;28;20030;-55
2022/09/21 12:02:19;;;;;;;5.50;2.78;;;17.60;90.00;;;;;;4979010;28;20033;-59
2022/09/21 12:05:10;;;;;;;5.63;2.30;;;17.70;90.10;;;;;;4993695;28;20018;-56
2022/09/21 12:08:44;;;;;;;4.63;2.60;;;17.50;90.10;;;;;;4993595;28;20054;-56
2022/09/21 12:11:38;;;;;;;4.78;2.38;;;17.60;90.30;;;;;;4988630;28;20894;-55
2022/09/21 12:14:49;;;;;;;4.95;2.17;;;17.40;89.20;;;;;;4978859;28;20030;-50
2022/09/21 12:17:48;;;;;;;2.97;1.92;;;17.20;89.50;;;;;;4993480;28;20034;-58
2022/09/21 12:20:54;;;;;;;2.10;1.75;;;16.80;87.00;;;;;;4993176;28;20026;-53
2022/09/21 12:23:56;;;;;;;2.55;1.90;;;16.40;86.60;;;;;;4992897;28;20107;-54
2022/09/21 12:26:47;;;;;;;2.45;1.90;;;16.20;87.20;;;;;;4992810;28;20031;-52
2022/09/21 12:29:42;;;;;;;3.10;2.35;;;16.10;89.60;;;;;;4993523;28;20031;-56
2022/09/21 12:32:46;;;;;;;3.35;2.17;;;15.80;90.90;;;;;;4992646;28;20034;-51
2022/09/21 12:35:40;;;;;;;3.28;2.22;;;15.80;91.20;;;;;;4992347;28;20033;-56
2022/09/21 12:38:40;;;;;;;6.22;2.28;;;15.90;91.40;;;;;;4992701;28;20033;-55
2022/09/21 12:41:53;;;;;;;3.80;2.40;;;16.10;91.40;;;;;;4992641;28;20414;-54
2022/09/21 12:44:50;;;;;;;6.65;2.78;;;16.40;91.40;;;;;;4992496;28;20466;-53
2022/09/21 12:47:56;;;;;;;5.85;2.63;;;16.80;90.90;;;;;;4992285;28;20033;-56
2022/09/21 12:50:50;;;;;;;5.70;2.75;;;17.00;90.40;;;;;;4992008;28;20446;-54
2022/09/21 12:53:40;;;;;;;3.90;2.20;;;17.30;89.60;;;;;;4992956;28;20018;-57
2022/09/21 12:56:57;;;;;;;4.85;2.90;;;17.50;89.30;;;;;;4992871;28;20491;-58
2022/09/21 12:59:52;;;;;;;7.35;2.85;;;17.70;88.90;;;;;;4993848;28;20057;-57
2022/09/21 13:03:03;;;;;;;3.22;2.20;;;17.90;88.10;;;;;;4988917;28;20023;-57
2022/09/21 13:06:05;;;;;;;3.85;2.55;;;18.10;86.90;;;;;;4983198;28;20066;-59
2022/09/21 13:09:19;;;;;;;3.03;2.10;;;18.20;87.10;;;;;;4974955;28;20026;-57
2022/09/21 13:12:45;;;;;;;4.97;2.40;;;18.20;86.70;;;;;;4978755;28;20038;-55
2022/09/21 13:15:40;;;;;;;3.53;2.35;;;18.40;86.80;;;;;;4976493;28;20034;-57
2022/09/21 13:18:33;;;;;;;4.78;2.58;;;18.70;86.50;;;;;;4985997;28;20101;-59
2022/09/21 13:21:28;;;;;;;7.82;2.60;;;19.00;84.20;;;;;;4994429;28;20355;-59
2022/09/21 13:24:29;;;;;;;2.83;2.20;;;19.10;83.90;;;;;;4993793;28;20033;-61
2022/09/21 13:27:18;;;;;;;3.75;2.50;;;18.90;82.80;;;;;;4993549;28;20023;-58
2022/09/21 13:30:28;;;;;;;4.80;2.20;;;18.90;83.80;;;;;;4992953;28;20027;-53
2022/09/21 13:33:20;;;;;;;3.53;2.17;;;18.80;82.40;;;;;;4991402;28;20598;-53
2022/09/21 13:36:29;;;;;;;3.90;2.08;;;18.80;81.80;;;;;;4999281;28;20018;-50
2022/09/21 13:39:20;;;;;;;3.70;2.20;;;18.60;80.00;;;;;;5005668;28;20391;-49
2022/09/21 13:42:28;;;;;;;2.83;1.90;;;18.50;79.30;;;;;;5004313;28;20081;-56
2022/09/21 13:45:17;;;;;;;4.20;2.15;;;18.50;79.50;;;;;;4991007;28;20034;-58
2022/09/21 13:48:19;;;;;;;2.63;2.40;;;18.20;80.30;;;;;;4997970;28;20022;-53
2022/09/21 13:51:08;;;;;;;3.42;1.88;;;17.90;81.80;;;;;;4999848;28;20022;-56
2022/09/21 13:53:58;;;;;;;3.67;1.90;;;18.00;82.10;;;;;;5000995;28;20027;-54
2022/09/21 13:56:44;;;;;;;3.72;2.20;;;17.90;81.90;;;;;;4986844;28;20030;-54
2022/09/21 13:59:33;;;;;;;2.47;2.10;;;18.50;81.10;;;;;;5002845;28;20033;-52
2022/09/21 14:02:31;;;;;;;5.10;2.33;;;19.10;78.80;;;;;;5004038;28;20027;-53
2022/09/21 14:05:30;;;;;;;3.67;2.53;;;19.40;80.00;;;;;;4999751;28;20030;-55
2022/09/21 14:08:16;;;;;;;4.38;2.40;;;19.30;81.90;;;;;;4976498;28;20025;-54
2022/09/21 14:11:32;;;;;;;3.90;2.50;;;19.10;82.70;;;;;;4971903;28;20073;-56
2022/09/21 14:14:18;;;;;;;;;;;19.00;82.40;;;;;;4972962;28;20101;-54
2022/09/21 14:17:24;;;;;;;2.95;2.50;;;18.30;83.90;;;;;;4971987;28;19910;-55
2022/09/21 14:20:39;;;;;;;4.13;2.90;;;18.10;84.50;;;;;;4973759;28;20038;-53
2022/09/21 14:23:27;;;;;;;4.90;2.55;;;17.80;84.70;;;;;;4975657;28;20058;-54
2022/09/21 14:26:30;;;;;;;6.13;2.88;;;17.40;85.30;;;;;;4975526;28;20066;-49
2022/09/21 14:29:20;;;;;;;4.15;2.47;;;17.30;86.20;;;;;;4975673;28;20084;-52
2022/09/21 14:32:15;;;;;;;3.95;2.50;;;17.50;85.80;;;;;;4975439;28;20479;-54
2022/09/21 14:35:10;;;;;;;3.40;2.00;;;17.50;85.70;;;;;;4975183;28;20046;-54
2022/09/21 14:37:59;;;;;;;3.55;2.40;;;17.50;86.00;;;;;;4994343;28;20133;-54
2022/09/21 14:40:49;;;;;;;5.85;2.50;;;17.60;86.10;;;;;;4994619;28;20034;-56
2022/09/21 14:43:38;;;;;;;3.97;2.10;;;17.50;85.50;;;;;;4994106;28;20034;-53
2022/09/21 14:46:58;;;;;;;3.15;2.15;;;17.50;84.80;;;;;;4994652;28;20069;-55
2022/09/21 14:49:53;;;;;;;3.53;2.53;;;17.70;84.20;;;;;;4993802;28;20022;-53
2022/09/21 14:52:50;;;;;;;2.67;1.90;;;17.70;83.10;;;;;;5008880;28;20512;-53
2022/09/21 14:56:15;;;;;;;5.05;2.15;;;17.80;82.10;;;;;;5014390;28;20398;-51
2022/09/21 14:59:19;;;;;;;3.40;2.13;;;17.70;82.40;;;;;;5014203;28;20468;-55
2022/09/21 15:02:12;;;;;;;2.90;1.80;;;18.10;81.70;;;;;;5013780;28;20049;-52
2022/09/21 15:05:23;;;;;;;3.30;2.05;;;18.70;80.40;;;;;;5013879;28;20053;-56
2022/09/21 15:12:18;;;;;;;3.75;2.38;;;18.80;78.60;;;;;;4951771;29;20134;-52
2022/09/21 15:15:22;;;;;;;3.33;2.03;;;18.40;80.20;;;;;;4953362;28;20023;-54
2022/09/21 15:18:20;;;;;;;3.97;2.15;;;18.30;80.30;;;;;;5013620;28;20018;-53
2022/09/21 15:21:29;;;;;;;2.70;2.20;;;19.10;78.80;;;;;;5000120;28;20089;-55
2022/09/21 15:24:21;;;;;;;2.67;2.00;;;20.50;76.10;;;;;;5013862;28;20402;-50
2022/09/21 15:27:13;;;;;;;3.58;2.10;;;22.00;72.90;;;;;;5014077;28;20061;-53
2022/09/21 15:30:05;;;;;;;4.70;2.22;;;23.10;68.70;;;;;;5013173;28;20033;-53
2022/09/21 15:32:58;;;;;;;4.95;3.33;;;23.60;66.80;;;;;;4998969;28;20402;-54
2022/09/21 15:35:46;;;;;;;3.75;2.35;;;24.10;66.00;;;;;;5013074;28;20034;-52
2022/09/21 15:38:35;;;;;;;3.65;2.50;;;24.60;65.20;;;;;;5013628;28;20026;-49
2022/09/21 15:41:39;;;;;;;6.13;2.50;;;25.30;64.80;;;;;;5013149;28;20037;-50
2022/09/21 15:44:31;;;;;;;2.20;2.00;;;26.40;62.80;;;;;;5013063;28;20441;-55
2022/09/21 15:47:44;;;;;;;3.55;2.28;;;26.80;61.40;;;;;;5013565;28;20042;-55
2022/09/21 15:50:33;;;;;;;3.63;2.55;;;26.70;60.40;;;;;;4995057;28;20042;-53
2022/09/21 15:53:25;;;;;;;4.68;2.33;;;26.60;60.60;;;;;;4986184;28;20026;-55
2022/09/21 15:56:20;;;;;;;2.72;2.35;;;26.20;61.30;;;;;;4978913;28;20564;-54
2022/09/21 15:59:11;;;;;;;5.07;2.30;;;26.30;61.60;;;;;;4993682;28;20035;-53
2022/09/21 16:02:00;;;;;;;4.22;2.35;;;25.50;61.40;;;;;;4985338;28;20509;-49
2022/09/21 16:04:51;;;;;;;3.75;2.47;;;24.00;63.50;;;;;;4980699;28;20029;-51
2022/09/21 16:07:37;;;;;;;3.67;2.60;;;24.00;63.70;;;;;;4992031;28;20023;-48
2022/09/21 16:10:29;;;;;;;3.70;2.70;;;24.30;63.10;;;;;;4993658;28;20526;-52
2022/09/21 16:16:27;;;;;;;3.03;2.55;;;24.80;61.60;;;;;;4993624;28;20031;-52
2022/09/21 16:19:16;;;;;;;6.78;2.53;;;25.20;61.10;;;;;;4980123;28;20459;-50
2022/09/21 16:22:04;;;;;;;2.38;2.10;;;25.20;60.40;;;;;;4993540;28;20030;-53
2022/09/21 16:24:54;;;;;;;3.33;2.35;;;25.60;60.60;;;;;;4992756;28;20053;-54
2022/09/21 16:27:54;;;;;;;2.92;1.98;;;25.40;59.90;;;;;;4992965;28;20533;-53
2022/09/21 16:30:40;;;;;;;3.97;2.47;;;25.00;59.50;;;;;;4991166;28;20629;-51
2022/09/21 16:33:39;;;;;;;3.20;2.78;;;25.00;59.40;;;;;;4992739;28;20435;-50
2022/09/21 16:36:28;;;;;;;2.80;2.40;;;25.30;59.10;;;;;;4992859;28;20559;-52
2022/09/21 16:39:16;;;;;;;3.28;2.25;;;25.40;59.10;;;;;;4993262;28;20121;-49
2022/09/21 16:42:04;;;;;;;4.28;2.50;;;25.90;59.50;;;;;;4991956;28;20026;-49
2022/09/21 16:44:50;;;;;;;3.03;2.30;;;26.20;59.10;;;;;;4991637;28;20370;-49
2022/09/21 16:47:36;;;;;;;2.45;2.10;;;25.80;60.00;;;;;;4998763;28;20030;-51
2022/09/21 16:50:23;;;;;;;5.75;2.53;;;25.90;58.50;;;;;;5003537;28;20034;-54
2022/09/21 16:53:09;;;;;;;3.03;2.33;;;25.70;59.30;;;;;;4981682;28;20134;-54
2022/09/21 16:55:55;;;;;;;3.10;2.10;;;25.50;59.20;;;;;;4976246;28;20034;-54
2022/09/21 16:58:43;;;;;;;2.55;2.30;;;24.80;59.70;;;;;;4989315;28;20030;-54
2022/09/21 17:01:29;;;;;;;3.15;2.35;;;24.20;60.80;;;;;;4973644;28;20032;-48
2022/09/21 17:04:16;;;;;;;3.22;1.90;;;23.20;62.40;;;;;;4979372;28;20121;-52
2022/09/21 17:07:05;;;;;;;5.18;2.25;;;22.00;64.40;;;;;;4985904;28;20054;-50
2022/09/21 17:09:51;;;;;;;2.90;2.10;;;21.10;66.50;;;;;;4998314;28;20034;-54
2022/09/21 17:12:38;;;;;;;2.97;2.28;;;20.40;68.20;;;;;;4996370;28;20062;-51
2022/09/21 17:15:24;;;;;;;4.53;2.53;;;19.80;69.40;;;;;;4990358;28;20034;-53
2022/09/21 17:18:12;;;;;;;5.43;2.20;;;19.30;70.60;;;;;;4992313;28;20044;-58
2022/09/21 17:20:58;;;;;;;3.45;2.20;;;18.80;71.80;;;;;;4991704;28;20031;-56
2022/09/21 17:23:44;;;;;;;3.80;2.20;;;18.60;72.60;;;;;;4991708;28;20051;-55
2022/09/21 17:26:31;;;;;;;10.65;8.15;;;18.30;73.20;;;;;;5004481;28;20062;-54
2022/09/21 17:29:21;;;;;;;11.60;8.93;;;18.10;74.10;;;;;;4991919;28;20058;-53
2022/09/21 17:32:09;;;;;;;6.72;4.88;;;18.00;74.80;;;;;;4991654;28;20034;-52
2022/09/21 17:35:22;;;;;;;6.55;4.43;;;17.90;75.40;;;;;;4992217;28;20026;-54
2022/09/21 17:38:08;;;;;;;4.90;3.10;;;17.90;75.50;;;;;;4977697;28;20026;-52
2022/09/21 17:40:54;;;;;;;7.47;4.85;;;17.70;76.00;;;;;;4992183;28;20490;-56
2022/09/21 17:44:06;;;;;;;9.43;5.22;;;17.60;76.50;;;;;;4992345;28;20042;-55
2022/09/21 17:47:23;;;;;;;9.07;7.88;;;17.50;77.00;;;;;;4991533;28;20026;-55
2022/09/21 17:50:12;;;;;;;16.08;12.48;;;17.50;77.50;;;;;;4977860;28;20027;-57
2022/09/21 17:56:26;;;;;;;7.43;5.10;;;17.30;80.00;;;;;;4996462;28;20022;-50
2022/09/21 17:59:31;;;;;;;9.40;7.50;;;17.10;80.70;;;;;;4995570;28;20022;-51
2022/09/21 18:02:22;;;;;;;4.65;3.80;;;16.90;81.30;;;;;;4994854;28;20545;-58
2022/09/21 18:05:18;;;;;;;8.73;6.05;;;16.90;80.00;;;;;;4980185;28;20049;-48
2022/09/21 18:08:04;;;;;;;12.10;7.57;;;16.80;80.30;;;;;;4995205;28;20343;-55
2022/09/21 18:10:56;;;;;;;10.05;7.75;;;16.70;81.70;;;;;;4994863;28;20041;-53
2022/09/21 18:14:16;;;;;;;9.23;7.38;;;16.50;82.90;;;;;;4995822;28;20026;-55
2022/09/21 18:17:14;;;;;;;7.95;5.95;;;16.40;83.10;;;;;;4996551;28;20637;-49
2022/09/21 18:20:28;;;;;;;10.80;6.90;;;16.20;83.30;;;;;;4994837;28;20027;-51
2022/09/21 18:23:20;;;;;;;12.95;7.18;;;16.10;84.50;;;;;;4994277;28;20058;-55
2022/09/21 18:26:14;;;;;;;14.65;8.35;;;16.10;85.60;;;;;;4980950;28;20105;-58
2022/09/21 18:29:00;;;;;;;10.40;7.45;;;16.10;86.40;;;;;;4994531;28;20022;-55
2022/09/21 18:32:01;;;;;;;11.63;7.53;;;16.00;87.20;;;;;;4981205;28;20029;-51
2022/09/21 18:34:59;;;;;;;10.10;8.70;;;16.00;87.90;;;;;;4994670;28;20184;-53
2022/09/21 18:38:11;;;;;;;13.45;9.23;;;16.00;88.20;;;;;;4995304;28;20019;-51
2022/09/21 18:41:41;;;;;;;9.52;7.40;;;16.00;89.10;;;;;;4981529;28;20029;-54
2022/09/21 18:44:31;;;;;;;7.63;5.82;;;15.90;90.30;;;;;;4995133;28;20026;-57
2022/09/21 18:47:34;;;;;;;8.25;5.75;;;15.90;90.40;;;;;;4994453;28;20019;-50
2022/09/21 18:50:33;;;;;;;9.48;4.20;;;15.80;90.20;;;;;;4994631;28;20062;-53
2022/09/21 18:53:40;;;;;;;6.65;4.38;;;15.80;89.20;;;;;;4995086;28;20023;-53
2022/09/21 18:56:35;;;;;;;11.35;9.70;;;15.60;90.10;;;;;;4999598;28;20030;-52
2022/09/21 18:59:21;;;;;;;;;;;15.50;90.20;;;;;;5000365;28;20034;-52
2022/09/21 19:02:13;;;;;;;8.65;6.05;;;15.40;90.40;;;;;;5014675;28;19997;-54
2022/09/21 19:04:59;;;;;;;8.73;5.40;;;15.50;90.30;;;;;;4974072;28;20117;-49
2022/09/21 19:08:09;;;;;;;7.50;4.43;;;15.40;90.50;;;;;;4977458;28;20031;-52
2022/09/21 19:11:02;;;;;;;6.45;4.85;;;15.40;90.60;;;;;;4974225;28;20058;-53
2022/09/21 19:13:59;;;;;;;7.60;4.55;;;15.40;90.70;;;;;;4978708;28;20529;-48
2022/09/21 19:17:00;;;;;;;8.38;5.00;;;15.40;90.90;;;;;;4960758;28;20023;-50
2022/09/21 19:19:46;;;;;;;10.77;5.55;;;15.30;91.10;;;;;;4979547;28;20023;-48
2022/09/21 19:22:43;;;;;;;6.25;4.68;;;15.30;91.30;;;;;;4988239;28;20035;-49
2022/09/21 19:25:52;;;;;;;7.97;4.72;;;15.20;91.30;;;;;;4972528;28;20034;-57
2022/09/21 19:28:56;;;;;;;8.13;5.55;;;15.20;91.90;;;;;;4976246;28;20027;-56
2022/09/21 19:31:42;;;;;;;6.97;4.70;;;15.20;92.20;;;;;;4966006;28;20031;-50
2022/09/21 19:34:30;;;;;;;8.20;4.45;;;15.10;92.30;;;;;;4994541;28;20022;-56
2022/09/21 19:37:16;;;;;;;6.88;4.75;;;15.10;92.80;;;;;;4977958;28;20037;-56
2022/09/21 19:40:03;;;;;;;5.22;4.35;;;15.00;93.30;;;;;;4978817;28;20548;-54
2022/09/21 19:43:05;;;;;;;5.90;4.15;;;14.90;93.90;;;;;;4979022;28;20689;-55
2022/09/21 19:46:03;;;;;;;5.05;4.13;;;14.90;94.30;;;;;;4985729;28;20022;-50
2022/09/21 19:48:54;;;;;;;7.63;6.30;;;14.80;94.60;;;;;;4985805;28;20059;-56
2022/09/21 19:51:50;;;;;;;11.35;7.97;;;14.70;94.80;;;;;;4973960;28;20027;-56
2022/09/21 20:00:51;;;;;;;11.35;7.55;;;14.50;96.00;;;;;;4993517;28;20034;-54
2022/09/21 20:03:44;;;;;;;12.13;6.18;;;14.40;96.10;;;;;;4979496;28;20054;-54
2022/09/21 20:06:56;;;;;;;7.45;5.85;;;14.40;96.20;;;;;;4982550;28;20073;-54
2022/09/21 20:09:56;;;;;;;6.85;5.40;;;14.30;96.50;;;;;;4988917;28;20030;-53
2022/09/21 20:13:19;;;;;;;8.70;5.50;;;14.20;96.60;;;;;;4998625;28;20107;-53
2022/09/21 20:16:33;;;;;;;6.38;5.10;;;14.20;96.80;;;;;;4986696;28;20495;-59